createdAt,value
2016-07-07T00:00:03.578Z,1008.83
2016-07-07T00:15:10.326Z,1009.07
2016-07-07T00:30:10.286Z,1009.04
2016-07-07T00:45:06.174Z,1009.13
2016-07-07T01:00:06.073Z,1009.14
2016-07-07T01:15:06.428Z,1009.03
2016-07-07T01:30:01.519Z,1008.96
2016-07-07T01:45:06.139Z,1008.93
2016-07-07T02:00:07.699Z,1008.73
2016-07-07T02:15:06.098Z,1008.56
2016-07-07T02:30:06.119Z,1008.74
2016-07-07T02:45:11.645Z,1008.72
2016-07-07T03:00:06.075Z,1008.78
2016-07-07T03:15:05.972Z,1008.98
2016-07-07T03:30:06.132Z,1008.92
2016-07-07T03:45:07.809Z,1009.14
2016-07-07T04:00:01.533Z,1009.22
2016-07-07T04:15:01.493Z,1009.19
2016-07-07T04:30:01.499Z,1009.29
2016-07-07T04:45:07.890Z,1009.43
2016-07-07T05:00:01.550Z,1009.48
2016-07-07T05:15:06.502Z,1009.73
2016-07-07T05:30:06.145Z,1009.75
2016-07-07T05:45:06.114Z,1009.96
2016-07-07T06:00:06.175Z,1010.12
2016-07-07T06:15:01.545Z,1010.2
2016-07-07T06:30:01.553Z,1010.07
2016-07-07T06:45:01.576Z,1010.21
2016-07-07T07:00:06.204Z,1010.31
2016-07-07T07:15:01.574Z,1010.21
2016-07-07T07:30:07.915Z,1010.08
2016-07-07T07:45:06.166Z,1010.24
2016-07-07T08:00:06.223Z,1009.98
2016-07-07T08:15:12.938Z,1009.96
2016-07-07T08:30:01.586Z,1009.92
2016-07-07T08:45:06.186Z,1010.11
2016-07-07T09:00:01.589Z,1009.79
2016-07-07T09:15:06.226Z,1009.82
2016-07-07T09:30:06.191Z,1009.79
2016-07-07T09:45:07.721Z,1009.88
2016-07-07T10:00:06.193Z,1009.58
2016-07-07T10:15:01.645Z,1009.7
2016-07-07T10:30:01.661Z,1009.55
2016-07-07T10:45:06.223Z,1009.61
2016-07-07T11:00:06.240Z,1009.51
2016-07-07T11:15:06.211Z,1009.34
2016-07-07T11:30:07.937Z,1009.36
2016-07-07T11:45:14.325Z,1009.07
2016-07-07T12:00:06.242Z,1009.1
2016-07-07T12:15:07.853Z,1009.05
2016-07-07T12:30:01.649Z,1008.91
2016-07-07T12:45:07.968Z,1009.03
2016-07-07T13:00:14.684Z,1008.88
2016-07-07T13:15:01.631Z,1008.86
2016-07-07T13:30:07.836Z,1008.86
2016-07-07T13:45:03.639Z,1008.8
2016-07-07T14:00:03.647Z,1008.75
2016-07-07T14:15:03.681Z,1008.69
2016-07-07T14:30:07.527Z,1008.56
2016-07-07T14:45:05.872Z,1008.39
2016-07-07T15:00:08.825Z,1008.08
2016-07-07T15:15:08.064Z,1008.09
2016-07-07T15:30:01.677Z,1007.97
2016-07-07T15:45:17.258Z,1007.93
2016-07-07T16:00:01.683Z,1007.68
2016-07-07T16:15:01.689Z,1007.69
2016-07-07T16:30:01.738Z,1007.76
2016-07-07T16:45:03.818Z,1007.59
2016-07-07T17:00:01.692Z,1007.57
2016-07-07T17:15:18.791Z,1007.59
2016-07-07T17:30:06.793Z,1007.45
2016-07-07T17:45:06.309Z,1007.49
2016-07-07T18:00:08.028Z,1007.5
2016-07-07T18:15:08.009Z,1007.29
2016-07-07T18:30:03.714Z,1007.23
2016-07-07T18:45:01.775Z,1007.18
2016-07-07T19:00:01.736Z,1007.05
2016-07-07T19:15:01.750Z,1007.07
2016-07-07T19:30:07.961Z,1006.98
2016-07-07T19:45:06.402Z,1007.16
2016-07-07T20:00:14.776Z,1007.15
2016-07-07T20:15:01.756Z,1007.1
2016-07-07T20:30:06.363Z,1006.88
2016-07-07T20:45:01.794Z,1006.76
2016-07-07T21:00:01.828Z,1006.87
2016-07-07T21:15:01.781Z,1006.7
2016-07-07T21:30:06.439Z,1006.66
2016-07-07T21:45:03.782Z,1006.76
2016-07-07T22:00:08.002Z,1006.59
2016-07-07T22:15:13.144Z,1006.49
2016-07-07T22:30:08.164Z,1006.64
2016-07-07T22:45:03.802Z,1006.46
2016-07-07T23:00:03.813Z,1006.41
2016-07-07T23:15:08.018Z,1006.38
2016-07-07T23:30:06.411Z,1006.19
2016-07-07T23:45:06.470Z,1006.07
